createdAt,value
2022-11-20T00:00:41.147Z,28.35
2022-11-20T00:03:07.903Z,27.83
2022-11-20T00:05:34.815Z,32.58
2022-11-20T00:08:01.645Z,30.30
2022-11-20T00:10:28.418Z,30.50
2022-11-20T00:12:55.198Z,34.03
2022-11-20T00:15:22.034Z,34.30
2022-11-20T00:17:48.787Z,31.85
2022-11-20T00:20:15.875Z,31.05
2022-11-20T00:22:42.624Z,31.90
2022-11-20T00:25:09.634Z,36.05
2022-11-20T00:27:36.773Z,31.27
2022-11-20T00:30:04.276Z,30.35
2022-11-20T00:32:31.227Z,32.78
2022-11-20T00:34:58.003Z,32.93
2022-11-20T00:37:24.767Z,34.28
2022-11-20T00:39:51.547Z,34.65
2022-11-20T00:42:18.294Z,32.95
2022-11-20T00:44:45.025Z,33.15
2022-11-20T00:47:11.831Z,33.03
2022-11-20T00:49:38.574Z,32.47
2022-11-20T00:52:05.543Z,36.38
2022-11-20T00:54:32.266Z,34.05
2022-11-20T00:56:58.977Z,34.20
2022-11-20T00:59:25.735Z,33.40
2022-11-20T01:01:52.495Z,36.38
2022-11-20T01:04:19.457Z,33.45
2022-11-20T01:06:46.200Z,34.55
2022-11-20T01:09:14.215Z,37.65
2022-11-20T01:11:42.863Z,33.67
2022-11-20T01:14:13.397Z,36.25
2022-11-20T01:16:50.456Z,36.33
2022-11-20T01:19:20.842Z,32.50
2022-11-20T01:21:50.869Z,33.63
2022-11-20T01:24:18.634Z,33.57
2022-11-20T01:26:45.938Z,35.00
2022-11-20T01:29:18.095Z,33.28
2022-11-20T01:31:45.304Z,32.88
2022-11-20T01:34:14.183Z,34.97
2022-11-20T01:36:41.139Z,34.80
2022-11-20T01:39:15.973Z,35.00
2022-11-20T01:42:05.674Z,31.52
2022-11-20T01:44:58.506Z,33.17
2022-11-20T01:47:35.204Z,30.13
2022-11-20T01:50:04.445Z,33.63
2022-11-20T01:52:40.178Z,33.38
2022-11-20T01:55:10.145Z,30.95
2022-11-20T01:57:36.943Z,32.22
2022-11-20T02:00:11.399Z,31.45
2022-11-20T02:02:38.253Z,32.10
2022-11-20T02:05:26.913Z,31.58
2022-11-20T02:07:53.864Z,31.13
2022-11-20T02:10:20.663Z,31.88
2022-11-20T02:13:06.024Z,32.70
2022-11-20T02:15:34.071Z,29.23
2022-11-20T02:18:00.895Z,33.70
2022-11-20T02:20:27.660Z,32.17
2022-11-20T02:23:17.683Z,30.75
2022-11-20T02:25:44.542Z,28.83
2022-11-20T02:28:11.355Z,32.67
2022-11-20T02:30:38.102Z,32.33
2022-11-20T02:33:04.826Z,31.02
2022-11-20T02:35:31.834Z,30.60
2022-11-20T02:38:00.403Z,29.73
2022-11-20T02:40:27.163Z,32.47
2022-11-20T02:42:54.606Z,32.45
2022-11-20T02:45:21.453Z,29.17
2022-11-20T02:47:48.184Z,30.00
2022-11-20T02:50:14.996Z,32.22
2022-11-20T02:52:41.725Z,30.73
2022-11-20T02:55:08.583Z,31.38
2022-11-20T02:57:35.527Z,31.63
2022-11-20T03:00:02.354Z,29.67
2022-11-20T03:02:32.526Z,30.02
2022-11-20T03:04:59.414Z,28.80
2022-11-20T03:07:26.523Z,30.13
2022-11-20T03:09:53.343Z,31.35
2022-11-20T03:12:20.063Z,30.75
2022-11-20T03:14:52.651Z,29.77
2022-11-20T03:17:19.938Z,28.40
2022-11-20T03:19:46.694Z,27.63
2022-11-20T03:22:13.462Z,32.65
2022-11-20T03:24:40.174Z,31.27
2022-11-20T03:27:06.907Z,27.50
2022-11-20T03:29:33.653Z,30.90
2022-11-20T03:32:00.434Z,29.60
2022-11-20T03:34:27.204Z,32.53
2022-11-20T03:36:53.944Z,31.58
2022-11-20T03:39:21.047Z,32.05
2022-11-20T03:41:48.084Z,31.97
2022-11-20T03:44:14.814Z,27.95
2022-11-20T03:46:41.536Z,30.92
2022-11-20T03:49:08.323Z,29.00
2022-11-20T03:51:36.210Z,29.35
2022-11-20T03:54:05.187Z,31.80
2022-11-20T03:56:33.556Z,29.45
2022-11-20T03:59:00.334Z,31.85
2022-11-20T04:01:31.392Z,30.23
2022-11-20T04:03:58.244Z,27.35
2022-11-20T04:06:27.033Z,30.93
2022-11-20T04:08:56.105Z,28.98
2022-11-20T04:11:24.780Z,27.08
2022-11-20T04:13:53.086Z,25.90
2022-11-20T04:16:20.284Z,27.42
2022-11-20T04:18:47.109Z,29.47
2022-11-20T04:21:13.974Z,28.67
2022-11-20T04:23:40.753Z,27.30
2022-11-20T04:26:11.978Z,27.48
2022-11-20T04:28:40.173Z,28.50
2022-11-20T04:31:08.336Z,27.97
2022-11-20T04:33:35.356Z,27.80
2022-11-20T04:36:06.564Z,30.13
2022-11-20T04:38:33.355Z,28.25
2022-11-20T04:41:01.150Z,31.08
2022-11-20T04:43:28.054Z,26.58
2022-11-20T04:45:55.295Z,28.42
2022-11-20T04:48:22.366Z,28.17
2022-11-20T04:50:49.114Z,29.13
2022-11-20T04:53:15.955Z,32.45
2022-11-20T04:55:42.735Z,29.73
2022-11-20T04:58:09.513Z,30.70
2022-11-20T05:00:36.284Z,29.20
2022-11-20T05:03:03.025Z,30.17
2022-11-20T05:05:29.733Z,33.03
2022-11-20T05:07:59.692Z,29.80
2022-11-20T05:10:27.168Z,30.33
2022-11-20T05:12:53.938Z,31.40
2022-11-20T05:15:20.754Z,30.75
2022-11-20T05:17:51.248Z,31.10
2022-11-20T05:20:18.424Z,32.17
2022-11-20T05:22:45.255Z,31.00
2022-11-20T05:25:12.174Z,30.90
2022-11-20T05:27:38.909Z,30.20
2022-11-20T05:30:06.233Z,32.05
2022-11-20T05:32:32.987Z,31.27
2022-11-20T05:34:59.736Z,33.25
2022-11-20T05:37:26.524Z,32.25
2022-11-20T05:39:53.527Z,31.90
2022-11-20T05:42:39.085Z,32.97
2022-11-20T05:45:06.993Z,32.70
2022-11-20T05:47:34.528Z,35.22
2022-11-20T05:50:01.272Z,34.75
2022-11-20T05:52:31.203Z,28.48
2022-11-20T05:54:58.055Z,34.92
2022-11-20T05:57:24.787Z,30.53
2022-11-20T05:59:51.582Z,34.97
2022-11-20T06:02:18.489Z,36.15
2022-11-20T06:04:45.275Z,34.38
2022-11-20T06:07:12.076Z,35.30
2022-11-20T06:09:38.863Z,32.35
2022-11-20T06:12:06.136Z,35.60
2022-11-20T06:14:32.884Z,34.22
2022-11-20T06:16:59.725Z,34.88
2022-11-20T06:19:26.524Z,33.85
2022-11-20T06:21:53.281Z,34.88
2022-11-20T06:24:20.096Z,34.45
2022-11-20T06:26:46.908Z,36.67
2022-11-20T06:29:13.691Z,32.45
2022-11-20T06:31:40.516Z,37.40
2022-11-20T06:34:07.632Z,35.75
2022-11-20T06:36:34.496Z,38.42
2022-11-20T06:39:01.683Z,41.63
2022-11-20T06:41:29.066Z,34.92
2022-11-20T06:43:55.862Z,40.50
2022-11-20T06:46:22.739Z,34.15
2022-11-20T06:48:49.818Z,39.45
2022-11-20T06:51:16.716Z,37.72
2022-11-20T06:53:43.474Z,35.58
2022-11-20T06:56:10.267Z,35.70
2022-11-20T06:58:37.784Z,40.30
2022-11-20T07:01:09.187Z,34.80
2022-11-20T07:03:36.023Z,39.35
2022-11-20T07:06:03.175Z,42.72
2022-11-20T07:08:30.103Z,37.03
2022-11-20T07:11:00.642Z,37.33
2022-11-20T07:13:28.285Z,35.40
2022-11-20T07:15:55.116Z,38.50
2022-11-20T07:18:22.066Z,37.67
2022-11-20T07:20:48.834Z,38.75
2022-11-20T07:23:15.574Z,37.73
2022-11-20T07:25:42.323Z,36.25
2022-11-20T07:28:09.359Z,35.08
2022-11-20T07:30:36.123Z,37.38
2022-11-20T07:33:02.870Z,35.17
2022-11-20T07:35:29.595Z,33.28
2022-11-20T07:37:56.331Z,36.53
2022-11-20T07:40:23.119Z,32.03
2022-11-20T07:42:51.135Z,38.70
2022-11-20T07:45:18.886Z,36.40
2022-11-20T07:47:45.623Z,34.97
2022-11-20T07:50:12.751Z,35.22
2022-11-20T07:52:39.554Z,34.17
2022-11-20T07:55:07.026Z,31.13
2022-11-20T07:57:33.816Z,35.00
2022-11-20T08:00:00.625Z,35.03
2022-11-20T08:02:27.367Z,38.17
2022-11-20T08:04:54.146Z,36.03
2022-11-20T08:07:20.890Z,33.78
2022-11-20T08:09:47.678Z,38.08
2022-11-20T08:12:39.833Z,36.80
2022-11-20T08:15:12.593Z,36.42
2022-11-20T08:17:40.094Z,40.47
2022-11-20T08:20:07.264Z,36.65
2022-11-20T08:22:34.017Z,39.10
2022-11-20T08:25:00.755Z,37.00
2022-11-20T08:27:27.519Z,40.40
2022-11-20T08:29:54.314Z,39.85
2022-11-20T08:32:21.077Z,40.22
2022-11-20T08:34:47.887Z,40.50
2022-11-20T08:37:14.662Z,38.40
2022-11-20T08:39:41.438Z,39.63
2022-11-20T08:42:09.258Z,41.22
2022-11-20T08:44:36.044Z,39.70
2022-11-20T08:47:02.799Z,42.75
2022-11-20T08:49:29.552Z,39.37
2022-11-20T08:51:56.482Z,39.75
2022-11-20T08:54:23.702Z,42.88
2022-11-20T08:56:50.474Z,44.95
2022-11-20T08:59:27.334Z,41.28
2022-11-20T09:02:03.915Z,41.27
2022-11-20T09:04:30.643Z,45.63
2022-11-20T09:06:57.484Z,42.80
2022-11-20T09:09:24.582Z,42.25
2022-11-20T09:11:51.656Z,45.47
2022-11-20T09:14:18.406Z,48.13
2022-11-20T09:16:46.700Z,46.53
2022-11-20T09:19:34.710Z,45.13
2022-11-20T09:22:01.128Z,47.40
2022-11-20T09:24:28.930Z,50.55
2022-11-20T09:26:55.741Z,44.90
2022-11-20T09:29:23.151Z,52.00
2022-11-20T09:31:50.227Z,48.53
2022-11-20T09:34:17.020Z,52.80
2022-11-20T09:36:43.757Z,51.15
2022-11-20T09:39:10.488Z,58.03
2022-11-20T09:42:23.737Z,52.90
2022-11-20T09:44:56.181Z,51.28
2022-11-20T09:47:37.743Z,52.65
2022-11-20T09:50:41.623Z,52.85
2022-11-20T09:53:45.885Z,52.70
2022-11-20T09:56:12.759Z,53.83
2022-11-20T09:58:43.990Z,53.97
2022-11-20T10:01:16.569Z,49.53
2022-11-20T10:04:16.177Z,57.08
2022-11-20T10:09:57.076Z,53.22
2022-11-20T10:13:01.105Z,50.90
2022-11-20T10:16:12.733Z,54.75
2022-11-20T10:18:57.774Z,58.03
2022-11-20T10:21:56.847Z,55.77
2022-11-20T10:24:47.097Z,54.30
2022-11-20T10:27:44.404Z,59.67
2022-11-20T10:30:15.874Z,58.30
2022-11-20T10:32:48.344Z,53.78
2022-11-20T10:35:14.996Z,52.37
2022-11-20T10:37:45.464Z,58.80
2022-11-20T10:40:33.633Z,56.45
2022-11-20T10:43:04.159Z,55.83
2022-11-20T10:45:58.777Z,60.40
2022-11-20T10:48:26.914Z,53.63
2022-11-20T10:50:56.654Z,64.43
2022-11-20T10:53:59.145Z,58.83
2022-11-20T10:56:59.707Z,51.95
2022-11-20T10:59:26.379Z,53.97
2022-11-20T11:01:53.235Z,51.90
2022-11-20T11:04:35.222Z,60.72
2022-11-20T11:07:26.632Z,62.00
2022-11-20T11:09:54.728Z,59.20
2022-11-20T11:12:22.937Z,59.50
2022-11-20T11:14:54.293Z,54.47
2022-11-20T11:17:28.371Z,62.53
2022-11-20T11:20:22.329Z,58.95
2022-11-20T11:22:51.105Z,57.97
2022-11-20T11:25:25.411Z,59.40
2022-11-20T11:27:52.578Z,62.50
2022-11-20T11:30:20.257Z,64.00
2022-11-20T11:32:47.509Z,66.00
2022-11-20T11:35:25.324Z,63.72
2022-11-20T11:37:52.461Z,60.45
2022-11-20T11:40:24.300Z,63.00
2022-11-20T11:43:03.774Z,64.43
2022-11-20T11:45:30.563Z,59.38
2022-11-20T11:47:58.985Z,63.72
2022-11-20T11:50:26.904Z,62.05
2022-11-20T11:53:10.565Z,61.40
2022-11-20T11:56:14.562Z,65.00
2022-11-20T11:58:48.061Z,60.72
2022-11-20T12:01:35.718Z,59.53
2022-11-20T12:04:14.568Z,60.80
2022-11-20T12:06:42.703Z,61.67
2022-11-20T12:09:12.835Z,65.53
2022-11-20T12:11:57.078Z,68.78
2022-11-20T12:14:30.367Z,64.22
2022-11-20T12:16:58.681Z,63.30
2022-11-20T12:19:25.804Z,63.77
2022-11-20T12:22:30.324Z,63.17
2022-11-20T12:24:56.996Z,57.75
2022-11-20T12:27:48.665Z,64.07
2022-11-20T12:30:16.373Z,62.00
2022-11-20T12:33:20.713Z,63.53
2022-11-20T12:36:08.125Z,61.33
2022-11-20T12:39:12.255Z,66.57
2022-11-20T12:42:34.891Z,62.25
2022-11-20T12:45:23.284Z,63.20
2022-11-20T12:48:08.430Z,68.47
2022-11-20T12:54:14.098Z,67.88
2022-11-20T12:56:40.806Z,65.05
2022-11-20T12:59:44.788Z,65.68
2022-11-20T13:02:46.017Z,62.80
2022-11-20T13:05:35.935Z,64.40
2022-11-20T13:08:02.669Z,62.95
2022-11-20T13:10:40.398Z,70.97
2022-11-20T13:13:16.230Z,67.97
2022-11-20T13:16:14.668Z,70.77
2022-11-20T13:18:43.539Z,66.63
2022-11-20T13:21:22.048Z,69.30
2022-11-20T13:23:48.806Z,64.20
2022-11-20T13:26:23.275Z,64.90
2022-11-20T13:29:03.064Z,58.87
2022-11-20T13:31:34.865Z,62.95
2022-11-20T13:34:02.978Z,65.07
2022-11-20T13:36:30.227Z,61.45
2022-11-20T13:38:57.440Z,64.60
2022-11-20T13:41:39.029Z,60.03
2022-11-20T13:44:16.634Z,66.57
2022-11-20T13:46:45.696Z,62.70
2022-11-20T13:49:33.646Z,63.67
2022-11-20T13:52:35.575Z,61.10
2022-11-20T13:55:23.766Z,56.10
2022-11-20T13:57:56.634Z,63.33
2022-11-20T14:00:24.548Z,63.67
2022-11-20T14:03:14.238Z,59.70
2022-11-20T14:05:42.190Z,61.65
2022-11-20T14:08:15.606Z,67.10
2022-11-20T14:10:42.327Z,67.03
2022-11-20T14:13:27.115Z,65.35
2022-11-20T14:15:58.096Z,62.55
2022-11-20T14:18:26.743Z,65.03
2022-11-20T14:20:53.593Z,62.07
2022-11-20T14:23:29.916Z,59.25
2022-11-20T14:25:57.228Z,58.95
2022-11-20T14:28:28.780Z,65.75
2022-11-20T14:30:56.272Z,69.93
2022-11-20T14:33:25.929Z,63.13
2022-11-20T14:35:56.747Z,58.08
2022-11-20T14:38:26.435Z,65.07
2022-11-20T14:40:53.297Z,59.17
2022-11-20T14:43:23.996Z,60.65
2022-11-20T14:46:01.626Z,61.43
2022-11-20T14:48:43.404Z,62.30
2022-11-20T14:51:11.986Z,67.45
2022-11-20T14:53:38.860Z,58.30
2022-11-20T14:56:05.752Z,66.22
2022-11-20T14:58:34.439Z,61.67
2022-11-20T15:01:06.266Z,68.75
2022-11-20T15:03:40.535Z,61.75
2022-11-20T15:06:08.908Z,64.93
2022-11-20T15:08:35.865Z,59.13
2022-11-20T15:11:02.669Z,61.57
2022-11-20T15:13:38.885Z,63.58
2022-11-20T15:16:15.036Z,66.72
2022-11-20T15:18:44.509Z,62.83
2022-11-20T15:21:14.677Z,58.58
2022-11-20T15:23:41.550Z,64.13
2022-11-20T15:26:09.149Z,60.10
2022-11-20T15:28:41.391Z,63.17
2022-11-20T15:31:08.245Z,64.65
2022-11-20T15:33:35.319Z,65.05
2022-11-20T15:36:02.092Z,62.43
2022-11-20T15:38:28.832Z,64.30
2022-11-20T15:40:55.595Z,62.85
2022-11-20T15:43:22.533Z,60.53
2022-11-20T15:45:51.160Z,62.10
2022-11-20T15:48:20.816Z,57.83
2022-11-20T15:51:12.247Z,60.83
2022-11-20T15:53:39.989Z,61.22
2022-11-20T15:56:07.017Z,59.70
2022-11-20T15:58:33.770Z,63.45
2022-11-20T16:01:00.636Z,63.80
2022-11-20T16:03:27.466Z,66.13
2022-11-20T16:05:54.282Z,65.63
2022-11-20T16:08:21.094Z,63.42
2022-11-20T16:10:47.862Z,62.03
2022-11-20T16:13:34.857Z,62.23
2022-11-20T16:16:06.110Z,67.60
2022-11-20T16:18:33.148Z,60.92
2022-11-20T16:20:59.948Z,70.30
2022-11-20T16:23:26.814Z,60.03
2022-11-20T16:25:53.603Z,62.43
2022-11-20T16:28:20.686Z,64.82
2022-11-20T16:30:47.544Z,69.07
2022-11-20T16:33:18.248Z,69.63
2022-11-20T16:35:45.057Z,66.63
2022-11-20T16:38:11.879Z,60.87
2022-11-20T16:40:38.646Z,61.08
2022-11-20T16:43:12.258Z,66.88
2022-11-20T16:45:44.413Z,62.83
2022-11-20T16:48:15.521Z,64.00
2022-11-20T16:50:52.857Z,63.30
2022-11-20T16:53:20.477Z,69.53
2022-11-20T16:55:47.347Z,69.95
2022-11-20T16:58:15.098Z,66.82
2022-11-20T17:00:45.595Z,67.10
2022-11-20T17:03:17.720Z,62.87
2022-11-20T17:05:44.490Z,66.93
2022-11-20T17:08:11.341Z,69.30
2022-11-20T17:10:38.144Z,63.80
2022-11-20T17:13:04.894Z,61.28
2022-11-20T17:15:31.771Z,66.80
2022-11-20T17:17:58.535Z,64.82
2022-11-20T17:20:25.321Z,65.95
2022-11-20T17:22:52.078Z,64.38
2022-11-20T17:25:18.986Z,67.45
2022-11-20T17:27:45.718Z,67.13
2022-11-20T17:30:12.608Z,68.70
2022-11-20T17:32:39.935Z,63.10
2022-11-20T17:35:06.958Z,66.53
2022-11-20T17:37:33.705Z,69.43
2022-11-20T17:40:00.440Z,66.77
2022-11-20T17:42:27.199Z,68.70
2022-11-20T17:44:53.946Z,66.97
2022-11-20T17:47:20.748Z,57.95
2022-11-20T17:49:47.485Z,71.28
2022-11-20T17:52:14.276Z,63.77
2022-11-20T17:54:40.986Z,65.57
2022-11-20T17:57:27.586Z,69.82
2022-11-20T17:59:54.435Z,67.88
2022-11-20T18:02:21.196Z,69.25
2022-11-20T18:04:47.927Z,67.63
2022-11-20T18:07:14.696Z,66.70
2022-11-20T18:09:41.475Z,66.68
2022-11-20T18:12:08.225Z,65.80
2022-11-20T18:14:36.696Z,68.53
2022-11-20T18:17:08.741Z,65.70
2022-11-20T18:20:01.001Z,66.18
2022-11-20T18:22:32.906Z,64.93
2022-11-20T18:24:59.738Z,64.00
2022-11-20T18:27:26.490Z,67.63
2022-11-20T18:29:53.563Z,67.03
2022-11-20T18:32:21.628Z,66.85
2022-11-20T18:34:48.581Z,69.72
2022-11-20T18:37:16.543Z,69.75
2022-11-20T18:39:43.694Z,71.32
2022-11-20T18:42:52.763Z,63.30
2022-11-20T18:45:19.536Z,68.03
2022-11-20T18:47:46.298Z,62.85
2022-11-20T18:50:13.045Z,71.05
2022-11-20T18:52:44.762Z,63.00
2022-11-20T18:55:12.748Z,67.53
2022-11-20T18:57:39.604Z,72.22
2022-11-20T19:00:09.563Z,75.97
2022-11-20T19:02:41.763Z,71.38
2022-11-20T19:05:13.305Z,60.83
2022-11-20T19:07:40.400Z,71.90
2022-11-20T19:10:07.432Z,68.22
2022-11-20T19:12:34.794Z,70.97
2022-11-20T19:15:01.531Z,71.65
2022-11-20T19:17:28.264Z,63.83
2022-11-20T19:19:55.267Z,69.53
2022-11-20T19:22:22.426Z,74.70
2022-11-20T19:24:49.512Z,65.85
2022-11-20T19:27:16.343Z,68.07
2022-11-20T19:29:43.183Z,71.32
2022-11-20T19:32:09.950Z,72.15
2022-11-20T19:34:36.946Z,69.50
2022-11-20T19:37:03.794Z,70.07
2022-11-20T19:39:30.650Z,68.38
2022-11-20T19:41:57.410Z,71.97
2022-11-20T19:44:24.210Z,72.10
2022-11-20T19:46:51.087Z,70.75
2022-11-20T19:49:17.854Z,61.85
2022-11-20T19:51:48.432Z,68.13
2022-11-20T19:54:15.337Z,71.13
2022-11-20T19:56:42.158Z,73.87
2022-11-20T19:59:08.914Z,73.55
2022-11-20T20:01:35.758Z,76.65
2022-11-20T20:04:05.225Z,78.90
2022-11-20T20:06:32.975Z,70.80
2022-11-20T20:09:01.657Z,72.88
2022-11-20T20:11:30.122Z,67.97
2022-11-20T20:13:59.133Z,80.78
2022-11-20T20:16:26.447Z,74.93
2022-11-20T20:19:01.595Z,70.82
2022-11-20T20:21:30.449Z,67.87
2022-11-20T20:23:57.686Z,72.80
2022-11-20T20:26:24.613Z,73.95
2022-11-20T20:28:51.481Z,76.80
2022-11-20T20:31:20.056Z,72.35
2022-11-20T20:33:46.867Z,74.60
2022-11-20T20:36:15.196Z,74.00
2022-11-20T20:38:42.485Z,71.85
2022-11-20T20:41:09.340Z,75.00
2022-11-20T20:43:56.751Z,71.65
2022-11-20T20:46:24.038Z,74.70
2022-11-20T20:48:54.337Z,77.85
2022-11-20T20:51:22.187Z,64.95
2022-11-20T20:53:49.057Z,75.18
2022-11-20T20:56:15.925Z,72.05
2022-11-20T20:58:42.713Z,70.10
2022-11-20T21:01:12.121Z,74.85
2022-11-20T21:03:39.213Z,73.55
2022-11-20T21:06:08.207Z,69.78
2022-11-20T21:08:39.110Z,65.10
2022-11-20T21:11:08.954Z,79.37
2022-11-20T21:13:36.253Z,70.97
2022-11-20T21:16:03.087Z,70.35
2022-11-20T21:18:29.895Z,69.40
2022-11-20T21:21:15.093Z,67.05
2022-11-20T21:23:44.625Z,60.80
2022-11-20T21:26:11.414Z,66.57
2022-11-20T21:28:38.188Z,68.00
2022-11-20T21:31:08.608Z,66.63
2022-11-20T21:33:42.963Z,64.97
2022-11-20T21:36:11.233Z,65.37
2022-11-20T21:38:38.017Z,60.75
2022-11-20T21:41:05.353Z,66.60
2022-11-20T21:43:32.234Z,60.05
2022-11-20T21:46:02.804Z,55.20
2022-11-20T21:48:33.796Z,60.63
2022-11-20T21:51:08.044Z,61.88
2022-11-20T21:53:34.913Z,58.67
2022-11-20T21:56:02.114Z,53.65
2022-11-20T21:58:28.909Z,53.33
2022-11-20T22:00:55.688Z,55.23
2022-11-20T22:03:22.804Z,56.72
2022-11-20T22:05:58.876Z,54.78
2022-11-20T22:08:26.448Z,46.97
2022-11-20T22:10:57.315Z,50.75
2022-11-20T22:13:43.275Z,49.13
2022-11-20T22:16:10.163Z,47.35
2022-11-20T22:18:37.038Z,50.40
2022-11-20T22:21:09.497Z,47.53
2022-11-20T22:23:36.389Z,49.40
2022-11-20T22:26:22.304Z,42.13
2022-11-20T22:28:50.076Z,42.05
2022-11-20T22:31:17.056Z,46.72
2022-11-20T22:33:43.885Z,44.85
2022-11-20T22:36:11.308Z,40.90
2022-11-20T22:38:39.663Z,37.97
2022-11-20T22:41:14.120Z,44.05
2022-11-20T22:43:41.554Z,44.25
2022-11-20T22:46:15.524Z,44.33
2022-11-20T22:49:05.976Z,45.63
2022-11-20T22:51:34.335Z,42.67
2022-11-20T22:54:01.341Z,43.22
2022-11-20T22:56:28.095Z,41.08
2022-11-20T22:58:55.174Z,40.00
2022-11-20T23:01:29.777Z,38.92
2022-11-20T23:03:58.115Z,44.67
2022-11-20T23:06:25.046Z,39.78
2022-11-20T23:08:51.906Z,40.45
2022-11-20T23:11:29.066Z,38.03
2022-11-20T23:14:01.258Z,38.45
2022-11-20T23:16:29.288Z,39.83
2022-11-20T23:18:57.184Z,39.13
2022-11-20T23:21:24.081Z,38.72
2022-11-20T23:23:51.895Z,39.90
2022-11-20T23:26:19.835Z,37.45
2022-11-20T23:28:46.699Z,38.73
2022-11-20T23:31:13.915Z,39.47
2022-11-20T23:33:41.784Z,42.78
2022-11-20T23:36:08.845Z,36.72
2022-11-20T23:38:35.616Z,38.90
2022-11-20T23:41:02.610Z,35.23
2022-11-20T23:43:29.455Z,35.55
2022-11-20T23:45:57.552Z,35.63
2022-11-20T23:48:29.035Z,34.15
2022-11-20T23:50:55.849Z,35.75
2022-11-20T23:53:22.745Z,35.73
2022-11-20T23:55:56.989Z,36.38
2022-11-20T23:58:24.877Z,33.92
